sensor_id;sensor_type;location;lat;lon;timestamp;pressure;altitude;pressure_sealevel;temperature;humidity
46430;BME280;32131;53.454;-6.180;2023-02-24T00:00:32;102089.06;;;6.49;91.84
46430;BME280;32131;53.454;-6.180;2023-02-24T00:03:04;102085.53;;;6.47;91.89
46430;BME280;32131;53.454;-6.180;2023-02-24T00:05:37;102078.38;;;6.41;92.40
46430;BME280;32131;53.454;-6.180;2023-02-24T00:08:15;102082.78;;;6.44;92.01
46430;BME280;32131;53.454;-6.180;2023-02-24T00:10:43;102087.91;;;6.44;92.41
46430;BME280;32131;53.454;-6.180;2023-02-24T00:13:14;102089.69;;;6.45;92.21
46430;BME280;32131;53.454;-6.180;2023-02-24T00:15:59;102081.00;;;6.43;92.58
46430;BME280;32131;53.454;-6.180;2023-02-24T00:18:28;102093.03;;;6.44;92.69
46430;BME280;32131;53.454;-6.180;2023-02-24T00:21:02;102085.34;;;6.44;92.88
46430;BME280;32131;53.454;-6.180;2023-02-24T00:23:36;102082.78;;;6.44;92.99
46430;BME280;32131;53.454;-6.180;2023-02-24T00:26:09;102081.00;;;6.43;93.06
46430;BME280;32131;53.454;-6.180;2023-02-24T00:28:39;102075.75;;;6.40;93.22
46430;BME280;32131;53.454;-6.180;2023-02-24T00:31:10;102080.88;;;6.40;93.38
46430;BME280;32131;53.454;-6.180;2023-02-24T00:33:41;102079.09;;;6.39;93.39
46430;BME280;32131;53.454;-6.180;2023-02-24T00:36:12;102079.09;;;6.39;93.64
46430;BME280;32131;53.454;-6.180;2023-02-24T00:38:42;102078.91;;;6.36;93.93
46430;BME280;32131;53.454;-6.180;2023-02-24T00:41:14;102071.06;;;6.33;93.98
46430;BME280;32131;53.454;-6.180;2023-02-24T00:43:44;102068.34;;;6.29;94.34
46430;BME280;32131;53.454;-6.180;2023-02-24T00:46:14;102075.25;;;6.31;94.61
46430;BME280;32131;53.454;-6.180;2023-02-24T00:48:43;102074.25;;;6.28;94.55
46430;BME280;32131;53.454;-6.180;2023-02-24T00:51:16;102062.34;;;6.29;94.71
46430;BME280;32131;53.454;-6.180;2023-02-24T00:53:51;102062.34;;;6.29;94.74
46430;BME280;32131;53.454;-6.180;2023-02-24T00:56:22;102060.56;;;6.28;94.80
46430;BME280;32131;53.454;-6.180;2023-02-24T00:58:51;102052.75;;;6.26;94.83
46430;BME280;32131;53.454;-6.180;2023-02-24T01:01:22;102043.22;;;6.24;94.94
46430;BME280;32131;53.454;-6.180;2023-02-24T01:03:52;102039.06;;;6.26;94.94
46430;BME280;32131;53.454;-6.180;2023-02-24T01:06:25;102044.13;;;6.24;95.01
46430;BME280;32131;53.454;-6.180;2023-02-24T01:08:57;102035.47;;;6.22;95.12
46430;BME280;32131;53.454;-6.180;2023-02-24T01:11:28;102045.72;;;6.22;95.03
46430;BME280;32131;53.454;-6.180;2023-02-24T01:14:22;102041.31;;;6.20;94.90
46430;BME280;32131;53.454;-6.180;2023-02-24T01:16:51;102027.59;;;6.19;95.22
46430;BME280;32131;53.454;-6.180;2023-02-24T01:19:20;102024.88;;;6.16;95.34
46430;BME280;32131;53.454;-6.180;2023-02-24T01:21:49;102024.88;;;6.16;95.23
46430;BME280;32131;53.454;-6.180;2023-02-24T01:24:23;102018.06;;;6.17;95.36
46430;BME280;32131;53.454;-6.180;2023-02-24T01:26:52;102019.75;;;6.16;95.42
46430;BME280;32131;53.454;-6.180;2023-02-24T01:29:20;102011.09;;;6.14;95.54
46430;BME280;32131;53.454;-6.180;2023-02-24T01:31:49;102013.72;;;6.16;95.51
46430;BME280;32131;53.454;-6.180;2023-02-24T01:34:19;102011.22;;;6.17;95.42
46430;BME280;32131;53.454;-6.180;2023-02-24T01:36:50;102016.34;;;6.17;95.09
46430;BME280;32131;53.454;-6.180;2023-02-24T01:39:19;102015.66;;;6.20;95.22
46430;BME280;32131;53.454;-6.180;2023-02-24T01:41:50;102010.53;;;6.20;95.05
46430;BME280;32131;53.454;-6.180;2023-02-24T01:47:27;102001.13;;;6.20;95.07
46430;BME280;32131;53.454;-6.180;2023-02-24T01:49:59;101994.41;;;6.22;95.11
46430;BME280;32131;53.454;-6.180;2023-02-24T01:52:33;101998.81;;;6.25;94.82
46430;BME280;32131;53.454;-6.180;2023-02-24T01:55:09;101993.78;;;6.26;94.82
46430;BME280;32131;53.454;-6.180;2023-02-24T01:57:41;101995.63;;;6.29;94.90
46430;BME280;32131;53.454;-6.180;2023-02-24T02:00:15;101994.81;;;6.30;94.82
46430;BME280;32131;53.454;-6.180;2023-02-24T02:03:06;101984.66;;;6.32;94.61
46430;BME280;32131;53.454;-6.180;2023-02-24T02:05:38;101971.81;;;6.32;94.49
46430;BME280;32131;53.454;-6.180;2023-02-24T02:08:09;101969.25;;;6.32;94.67
46430;BME280;32131;53.454;-6.180;2023-02-24T02:10:39;101955.47;;;6.29;94.70
46430;BME280;32131;53.454;-6.180;2023-02-24T02:13:13;101953.63;;;6.27;94.78
46430;BME280;32131;53.454;-6.180;2023-02-24T02:16:07;101958.66;;;6.25;94.90
46430;BME280;32131;53.454;-6.180;2023-02-24T02:18:46;101948.19;;;6.21;95.21
46430;BME280;32131;53.454;-6.180;2023-02-24T02:21:37;101941.19;;;6.18;95.26
46430;BME280;32131;53.454;-6.180;2023-02-24T02:24:22;101952.22;;;6.17;95.28
46430;BME280;32131;53.454;-6.180;2023-02-24T02:27:09;101951.31;;;6.15;95.52
46430;BME280;32131;53.454;-6.180;2023-02-24T02:36:05;101947.75;;;6.13;95.74
46430;BME280;32131;53.454;-6.180;2023-02-24T02:38:50;101946.16;;;6.15;95.83
46430;BME280;32131;53.454;-6.180;2023-02-24T02:41:23;101935.91;;;6.15;95.88
46430;BME280;32131;53.454;-6.180;2023-02-24T02:44:01;101940.31;;;6.18;95.91
46430;BME280;32131;53.454;-6.180;2023-02-24T02:46:39;101941.19;;;6.18;95.76
46430;BME280;32131;53.454;-6.180;2023-02-24T02:49:14;101926.75;;;6.20;95.81
46430;BME280;32131;53.454;-6.180;2023-02-24T02:51:49;101919.00;;;6.19;95.79
46430;BME280;32131;53.454;-6.180;2023-02-24T02:54:24;101923.31;;;6.20;95.96
46430;BME280;32131;53.454;-6.180;2023-02-24T02:56:58;101916.34;;;6.17;95.87
46430;BME280;32131;53.454;-6.180;2023-02-24T02:59:30;101921.25;;;6.12;96.06
46430;BME280;32131;53.454;-6.180;2023-02-24T03:02:02;101910.41;;;6.02;96.67
46430;BME280;32131;53.454;-6.180;2023-02-24T03:04:43;101921.09;;;5.94;96.88
46430;BME280;32131;53.454;-6.180;2023-02-24T03:07:15;101917.25;;;5.86;97.39
46430;BME280;32131;53.454;-6.180;2023-02-24T03:09:50;101934.94;;;5.81;97.95
46430;BME280;32131;53.454;-6.180;2023-02-24T03:12:23;101930.53;;;5.79;98.37
46430;BME280;32131;53.454;-6.180;2023-02-24T03:14:57;101931.19;;;5.75;98.73
46430;BME280;32131;53.454;-6.180;2023-02-24T03:17:31;101922.41;;;5.71;98.91
46430;BME280;32131;53.454;-6.180;2023-02-24T03:20:05;101914.59;;;5.68;99.11
46430;BME280;32131;53.454;-6.180;2023-02-24T03:22:45;101902.50;;;5.65;99.01
46430;BME280;32131;53.454;-6.180;2023-02-24T03:25:15;101909.47;;;5.68;99.35
46430;BME280;32131;53.454;-6.180;2023-02-24T03:27:48;101904.09;;;5.63;99.12
46430;BME280;32131;53.454;-6.180;2023-02-24T03:30:22;101898.88;;;5.62;99.67
46430;BME280;32131;53.454;-6.180;2023-02-24T03:32:56;101889.31;;;5.59;99.50
46430;BME280;32131;53.454;-6.180;2023-02-24T03:35:30;101894.44;;;5.59;99.67
46430;BME280;32131;53.454;-6.180;2023-02-24T03:38:02;101889.97;;;5.55;99.99
46430;BME280;32131;53.454;-6.180;2023-02-24T03:40:36;101889.00;;;5.53;100.00
46430;BME280;32131;53.454;-6.180;2023-02-24T03:43:09;101876.84;;;5.49;100.00
46430;BME280;32131;53.454;-6.180;2023-02-24T03:45:42;101875.78;;;5.45;100.00
46430;BME280;32131;53.454;-6.180;2023-02-24T03:48:12;101873.22;;;5.45;100.00
46430;BME280;32131;53.454;-6.180;2023-02-24T03:50:41;101871.34;;;5.43;100.00
46430;BME280;32131;53.454;-6.180;2023-02-24T03:53:23;101881.47;;;5.40;100.00
46430;BME280;32131;53.454;-6.180;2023-02-24T03:56:07;101865.72;;;5.33;100.00
46430;BME280;32131;53.454;-6.180;2023-02-24T03:58:49;101882.06;;;5.35;100.00
46430;BME280;32131;53.454;-6.180;2023-02-24T04:01:29;101887.91;;;5.33;100.00
46430;BME280;32131;53.454;-6.180;2023-02-24T04:04:05;101886.41;;;5.37;100.00
46430;BME280;32131;53.454;-6.180;2023-02-24T04:06:42;101876.22;;;5.38;100.00
46430;BME280;32131;53.454;-6.180;2023-02-24T04:09:17;101881.53;;;5.41;100.00
46430;BME280;32131;53.454;-6.180;2023-02-24T04:11:54;101874.81;;;5.43;100.00
46430;BME280;32131;53.454;-6.180;2023-02-24T04:14:30;101865.69;;;5.48;100.00
46430;BME280;32131;53.454;-6.180;2023-02-24T04:17:04;101865.06;;;5.53;100.00
46430;BME280;32131;53.454;-6.180;2023-02-24T04:19:38;101869.06;;;5.64;100.00
46430;BME280;32131;53.454;-6.180;2023-02-24T04:22:12;101863.59;;;5.73;100.00
46430;BME280;32131;53.454;-6.180;2023-02-24T04:24:47;101855.59;;;5.83;100.00
46430;BME280;32131;53.454;-6.180;2023-02-24T04:27:18;101849.00;;;5.88;99.94
46430;BME280;32131;53.454;-6.180;2023-02-24T04:29:52;101840.75;;;5.94;99.50
46430;BME280;32131;53.454;-6.180;2023-02-24T04:32:23;101834.97;;;5.98;99.48
46430;BME280;32131;53.454;-6.180;2023-02-24T04:35:00;101830.91;;;6.02;99.27
46430;BME280;32131;53.454;-6.180;2023-02-24T04:37:29;101828.44;;;6.03;99.31
46430;BME280;32131;53.454;-6.180;2023-02-24T04:40:03;101832.06;;;6.07;99.13
46430;BME280;32131;53.454;-6.180;2023-02-24T04:42:37;101827.56;;;6.03;99.51
46430;BME280;32131;53.454;-6.180;2023-02-24T04:45:13;101824.59;;;5.95;99.81
46430;BME280;32131;53.454;-6.180;2023-02-24T04:47:43;101825.38;;;5.94;100.00
46430;BME280;32131;53.454;-6.180;2023-02-24T04:50:16;101820.00;;;5.89;100.00
46430;BME280;32131;53.454;-6.180;2023-02-24T04:52:50;101822.41;;;5.86;100.00
46430;BME280;32131;53.454;-6.180;2023-02-24T04:55:22;101830.41;;;5.92;100.00
46430;BME280;32131;53.454;-6.180;2023-02-24T04:57:52;101823.84;;;5.97;100.00
46430;BME280;32131;53.454;-6.180;2023-02-24T05:00:21;101833.59;;;6.03;100.00
46430;BME280;32131;53.454;-6.180;2023-02-24T05:02:54;101830.28;;;6.06;100.00
46430;BME280;32131;53.454;-6.180;2023-02-24T05:05:24;101821.88;;;6.08;100.00
46430;BME280;32131;53.454;-6.180;2023-02-24T05:07:55;101811.53;;;6.07;100.00
46430;BME280;32131;53.454;-6.180;2023-02-24T05:10:35;101810.56;;;6.05;100.00
46430;BME280;32131;53.454;-6.180;2023-02-24T05:13:05;101815.53;;;6.02;100.00
46430;BME280;32131;53.454;-6.180;2023-02-24T05:15:38;101817.81;;;5.97;100.00
46430;BME280;32131;53.454;-6.180;2023-02-24T05:18:08;101822.09;;;5.96;100.00
46430;BME280;32131;53.454;-6.180;2023-02-24T05:20:41;101824.66;;;5.96;100.00
46430;BME280;32131;53.454;-6.180;2023-02-24T05:23:31;101822.28;;;6.00;100.00
46430;BME280;32131;53.454;-6.180;2023-02-24T05:26:03;101825.16;;;6.06;100.00
46430;BME280;32131;53.454;-6.180;2023-02-24T05:28:34;101815.03;;;6.09;100.00
46430;BME280;32131;53.454;-6.180;2023-02-24T05:31:05;101806.78;;;6.14;100.00
46430;BME280;32131;53.454;-6.180;2023-02-24T05:33:34;101806.22;;;6.20;100.00
46430;BME280;32131;53.454;-6.180;2023-02-24T05:36:06;101804.63;;;6.22;100.00
46430;BME280;32131;53.454;-6.180;2023-02-24T05:38:36;101801.38;;;6.26;99.78
46430;BME280;32131;53.454;-6.180;2023-02-24T05:41:07;101808.38;;;6.29;99.56
46430;BME280;32131;53.454;-6.180;2023-02-24T05:43:43;101798.03;;;6.27;99.58
46430;BME280;32131;53.454;-6.180;2023-02-24T05:46:14;101808.38;;;6.29;99.59
46430;BME280;32131;53.454;-6.180;2023-02-24T05:48:42;101796.59;;;6.33;99.37
46430;BME280;32131;53.454;-6.180;2023-02-24T05:51:12;101797.28;;;6.30;99.49
46430;BME280;32131;53.454;-6.180;2023-02-24T05:53:40;101797.44;;;6.33;99.55
46430;BME280;32131;53.454;-6.180;2023-02-24T05:56:10;101798.47;;;6.37;99.44
46430;BME280;32131;53.454;-6.180;2023-02-24T05:58:38;101801.13;;;6.38;99.36
46430;BME280;32131;53.454;-6.180;2023-02-24T06:01:11;101803.91;;;6.43;99.17
46430;BME280;32131;53.454;-6.180;2023-02-24T06:03:42;101804.94;;;6.47;99.22
46430;BME280;32131;53.454;-6.180;2023-02-24T06:06:16;101814.50;;;6.49;98.96
46430;BME280;32131;53.454;-6.180;2023-02-24T06:08:45;101805.16;;;6.51;98.92
46430;BME280;32131;53.454;-6.180;2023-02-24T06:11:18;101807.09;;;6.55;98.80
46430;BME280;32131;53.454;-6.180;2023-02-24T06:13:53;101810.63;;;6.57;98.71
46430;BME280;32131;53.454;-6.180;2023-02-24T06:16:23;101808.06;;;6.57;98.61
46430;BME280;32131;53.454;-6.180;2023-02-24T06:18:52;101803.84;;;6.59;98.81
46430;BME280;32131;53.454;-6.180;2023-02-24T06:21:22;101797.00;;;6.58;99.13
46430;BME280;32131;53.454;-6.180;2023-02-24T06:23:55;101788.34;;;6.56;99.33
46430;BME280;32131;53.454;-6.180;2023-02-24T06:26:26;101789.13;;;6.55;99.46
46430;BME280;32131;53.454;-6.180;2023-02-24T06:28:59;101786.56;;;6.55;99.58
46430;BME280;32131;53.454;-6.180;2023-02-24T06:31:27;101790.09;;;6.57;99.44
46430;BME280;32131;53.454;-6.180;2023-02-24T06:33:57;101782.41;;;6.57;99.47
46430;BME280;32131;53.454;-6.180;2023-02-24T06:36:26;101778.13;;;6.58;99.35
46430;BME280;32131;53.454;-6.180;2023-02-24T06:38:54;101778.13;;;6.58;99.46
46430;BME280;32131;53.454;-6.180;2023-02-24T06:41:25;101767.00;;;6.57;99.68
46430;BME280;32131;53.454;-6.180;2023-02-24T06:43:55;101764.56;;;6.60;99.46
46430;BME280;32131;53.454;-6.180;2023-02-24T06:46:24;101768.88;;;6.61;99.48
46430;BME280;32131;53.454;-6.180;2023-02-24T06:48:53;101756.00;;;6.60;99.58
46430;BME280;32131;53.454;-6.180;2023-02-24T06:51:22;101762.22;;;6.65;99.45
46430;BME280;32131;53.454;-6.180;2023-02-24T06:53:56;101759.88;;;6.70;99.13
46430;BME280;32131;53.454;-6.180;2023-02-24T06:56:26;101751.38;;;6.71;99.04
46430;BME280;32131;53.454;-6.180;2023-02-24T06:58:57;101748.00;;;6.72;99.31
46430;BME280;32131;53.454;-6.180;2023-02-24T07:01:27;101751.53;;;6.74;99.00
46430;BME280;32131;53.454;-6.180;2023-02-24T07:03:56;101741.38;;;6.77;99.18
46430;BME280;32131;53.454;-6.180;2023-02-24T07:06:46;101741.47;;;6.79;99.11
46430;BME280;32131;53.454;-6.180;2023-02-24T07:09:17;101743.72;;;6.72;99.43
46430;BME280;32131;53.454;-6.180;2023-02-24T07:11:48;101746.06;;;6.68;99.81
46430;BME280;32131;53.454;-6.180;2023-02-24T07:14:19;101749.38;;;6.65;99.81
46430;BME280;32131;53.454;-6.180;2023-02-24T07:16:48;101750.34;;;6.67;99.84
46430;BME280;32131;53.454;-6.180;2023-02-24T07:19:22;101751.44;;;6.72;99.48
46430;BME280;32131;53.454;-6.180;2023-02-24T07:21:55;101760.31;;;6.79;99.22
46430;BME280;32131;53.454;-6.180;2023-02-24T07:24:28;101759.66;;;6.83;98.97
46430;BME280;32131;53.454;-6.180;2023-02-24T07:27:05;101770.06;;;6.86;98.73
46430;BME280;32131;53.454;-6.180;2023-02-24T07:29:35;101766.84;;;6.90;98.55
46430;BME280;32131;53.454;-6.180;2023-02-24T07:32:04;101771.16;;;6.91;98.21
46430;BME280;32131;53.454;-6.180;2023-02-24T07:34:35;101767.06;;;6.95;98.34
46430;BME280;32131;53.454;-6.180;2023-02-24T07:37:06;101768.81;;;6.96;98.15
46430;BME280;32131;53.454;-6.180;2023-02-24T07:39:36;101760.28;;;6.97;98.09
46430;BME280;32131;53.454;-6.180;2023-02-24T07:42:08;101760.38;;;6.99;98.04
46430;BME280;32131;53.454;-6.180;2023-02-24T07:44:38;101763.91;;;7.01;97.96
46430;BME280;32131;53.454;-6.180;2023-02-24T07:47:06;101761.34;;;7.01;98.27
46430;BME280;32131;53.454;-6.180;2023-02-24T07:49:35;101757.94;;;7.02;98.35
46430;BME280;32131;53.454;-6.180;2023-02-24T07:52:04;101750.38;;;7.05;98.42
46430;BME280;32131;53.454;-6.180;2023-02-24T07:54:35;101759.03;;;7.07;98.29
46430;BME280;32131;53.454;-6.180;2023-02-24T07:57:07;101760.06;;;7.11;98.27
46430;BME280;32131;53.454;-6.180;2023-02-24T07:59:40;101754.19;;;7.13;98.09
46430;BME280;32131;53.454;-6.180;2023-02-24T08:02:14;101757.69;;;7.15;98.14
46430;BME280;32131;53.454;-6.180;2023-02-24T08:04:43;101757.00;;;7.19;97.83
46430;BME280;32131;53.454;-6.180;2023-02-24T08:07:17;101752.19;;;7.26;97.57
46430;BME280;32131;53.454;-6.180;2023-02-24T08:09:51;101756.78;;;7.33;97.27
46430;BME280;32131;53.454;-6.180;2023-02-24T08:12:53;101752.78;;;7.39;96.61
46430;BME280;32131;53.454;-6.180;2023-02-24T08:15:24;101753.78;;;7.43;96.71
46430;BME280;32131;53.454;-6.180;2023-02-24T08:18:00;101756.44;;;7.45;96.44
46430;BME280;32131;53.454;-6.180;2023-02-24T08:20:30;101763.63;;;7.52;96.22
46430;BME280;32131;53.454;-6.180;2023-02-24T08:23:02;101756.78;;;7.52;95.96
46430;BME280;32131;53.454;-6.180;2023-02-24T08:25:34;101747.28;;;7.51;96.03
46430;BME280;32131;53.454;-6.180;2023-02-24T08:28:07;101760.34;;;7.56;95.88
46430;BME280;32131;53.454;-6.180;2023-02-24T08:30:40;101762.31;;;7.62;95.56
46430;BME280;32131;53.454;-6.180;2023-02-24T08:33:13;101749.63;;;7.65;95.38
46430;BME280;32131;53.454;-6.180;2023-02-24T08:35:50;101760.22;;;7.72;95.15
46430;BME280;32131;53.454;-6.180;2023-02-24T08:38:20;101755.41;;;7.80;94.69
46430;BME280;32131;53.454;-6.180;2023-02-24T08:40:52;101759.00;;;7.84;94.55
46430;BME280;32131;53.454;-6.180;2023-02-24T08:43:30;101759.19;;;7.89;94.33
46430;BME280;32131;53.454;-6.180;2023-02-24T08:46:16;101766.09;;;7.90;93.79
46430;BME280;32131;53.454;-6.180;2023-02-24T08:48:50;101770.47;;;7.92;93.67
46430;BME280;32131;53.454;-6.180;2023-02-24T08:51:23;101760.16;;;7.91;93.58
46430;BME280;32131;53.454;-6.180;2023-02-24T08:53:56;101761.09;;;7.93;93.81
46430;BME280;32131;53.454;-6.180;2023-02-24T08:56:27;101754.44;;;7.98;93.47
46430;BME280;32131;53.454;-6.180;2023-02-24T08:58:59;101748.59;;;8.02;93.16
46430;BME280;32131;53.454;-6.180;2023-02-24T09:01:34;101748.06;;;8.09;92.93
46430;BME280;32131;53.454;-6.180;2023-02-24T09:04:05;101741.53;;;8.17;92.47
46430;BME280;32131;53.454;-6.180;2023-02-24T09:06:37;101750.56;;;8.29;92.09
46430;BME280;32131;53.454;-6.180;2023-02-24T09:09:06;101742.28;;;8.36;91.76
46430;BME280;32131;53.454;-6.180;2023-02-24T09:11:50;101740.03;;;8.44;91.20
46430;BME280;32131;53.454;-6.180;2023-02-24T09:14:26;101735.81;;;8.46;90.90
46430;BME280;32131;53.454;-6.180;2023-02-24T09:17:13;101743.75;;;8.51;90.55
46430;BME280;32131;53.454;-6.180;2023-02-24T12:03:19;101690.00;;;11.82;74.23
46430;BME280;32131;53.454;-6.180;2023-02-24T12:06:55;101679.41;;;11.73;73.21
46430;BME280;32131;53.454;-6.180;2023-02-24T12:09:31;101688.00;;;11.72;72.58
46430;BME280;32131;53.454;-6.180;2023-02-24T12:12:07;101674.63;;;11.88;72.81
46430;BME280;32131;53.454;-6.180;2023-02-24T12:14:44;101679.47;;;12.08;72.04
46430;BME280;32131;53.454;-6.180;2023-02-24T12:17:20;101676.25;;;12.18;71.44
46430;BME280;32131;53.454;-6.180;2023-02-24T12:19:57;101667.91;;;12.32;70.85
46430;BME280;32131;53.454;-6.180;2023-02-24T12:22:32;101665.50;;;12.38;70.80
46430;BME280;32131;53.454;-6.180;2023-02-24T12:25:12;101668.84;;;12.34;70.58
46430;BME280;32131;53.454;-6.180;2023-02-24T12:27:51;101655.81;;;12.31;70.61
46430;BME280;32131;53.454;-6.180;2023-02-24T12:30:36;101659.34;;;12.34;70.73
46430;BME280;32131;53.454;-6.180;2023-02-24T12:33:30;101644.28;;;12.16;70.73
46430;BME280;32131;53.454;-6.180;2023-02-24T12:36:09;101651.19;;;12.17;70.85
46430;BME280;32131;53.454;-6.180;2023-02-24T12:38:50;101651.06;;;12.11;71.12
46430;BME280;32131;53.454;-6.180;2023-02-24T12:41:43;101662.75;;;12.32;70.32
46430;BME280;32131;53.454;-6.180;2023-02-24T12:44:25;101660.16;;;12.32;70.29
46430;BME280;32131;53.454;-6.180;2023-02-24T12:47:02;101644.66;;;12.33;69.96
46430;BME280;32131;53.454;-6.180;2023-02-24T12:52:43;101651.84;;;12.45;68.93
46430;BME280;32131;53.454;-6.180;2023-02-24T12:55:19;101615.59;;;12.45;68.64
46430;BME280;32131;53.454;-6.180;2023-02-24T12:57:57;101637.25;;;12.49;68.40
46430;BME280;32131;53.454;-6.180;2023-02-24T13:01:00;101632.78;;;12.43;68.70
46430;BME280;32131;53.454;-6.180;2023-02-24T13:04:20;101632.00;;;12.47;69.09
46430;BME280;32131;53.454;-6.180;2023-02-24T13:07:00;101626.97;;;12.53;68.94
46430;BME280;32131;53.454;-6.180;2023-02-24T13:09:41;101627.81;;;12.52;69.23
46430;BME280;32131;53.454;-6.180;2023-02-24T13:12:17;101631.44;;;12.61;69.23
46430;BME280;32131;53.454;-6.180;2023-02-24T13:14:48;101624.38;;;12.53;68.87
46430;BME280;32131;53.454;-6.180;2023-02-24T13:17:20;101626.72;;;12.42;68.34
46430;BME280;32131;53.454;-6.180;2023-02-24T13:19:50;101627.53;;;12.40;68.43
46430;BME280;32131;53.454;-6.180;2023-02-24T13:22:25;101626.81;;;12.47;68.78
46430;BME280;32131;53.454;-6.180;2023-02-24T13:25:09;101622.63;;;12.52;68.72
46430;BME280;32131;53.454;-6.180;2023-02-24T13:27:41;101619.22;;;12.53;68.30
46430;BME280;32131;53.454;-6.180;2023-02-24T13:30:25;101606.44;;;12.63;68.08
46430;BME280;32131;53.454;-6.180;2023-02-24T13:33:03;101609.19;;;12.72;67.88
46430;BME280;32131;53.454;-6.180;2023-02-24T13:35:34;101608.34;;;12.71;67.98
46430;BME280;32131;53.454;-6.180;2023-02-24T13:40:52;101617.66;;;12.62;67.57
46430;BME280;32131;53.454;-6.180;2023-02-24T13:43:25;101610.84;;;12.68;67.99
46430;BME280;32131;53.454;-6.180;2023-02-24T13:45:56;101600.41;;;12.64;66.85
46430;BME280;32131;53.454;-6.180;2023-02-24T13:48:52;101609.41;;;12.40;66.19
46430;BME280;32131;53.454;-6.180;2023-02-24T13:51:43;101592.78;;;12.29;65.94
46430;BME280;32131;53.454;-6.180;2023-02-24T13:54:25;101591.88;;;12.26;66.42
46430;BME280;32131;53.454;-6.180;2023-02-24T13:57:19;101591.94;;;12.30;66.33
46430;BME280;32131;53.454;-6.180;2023-02-24T14:00:02;101588.59;;;12.35;66.54
46430;BME280;32131;53.454;-6.180;2023-02-24T14:02:38;101574.09;;;12.43;66.41
46430;BME280;32131;53.454;-6.180;2023-02-24T14:05:17;101571.22;;;12.30;66.86
46430;BME280;32131;53.454;-6.180;2023-02-24T14:07:47;101579.03;;;11.94;67.54
46430;BME280;32131;53.454;-6.180;2023-02-24T14:10:19;101574.13;;;11.69;68.13
46430;BME280;32131;53.454;-6.180;2023-02-24T14:12:58;101570.63;;;11.67;68.52
46430;BME280;32131;53.454;-6.180;2023-02-24T14:15:27;101575.41;;;11.86;68.42
46430;BME280;32131;53.454;-6.180;2023-02-24T14:17:57;101572.41;;;12.06;68.23
46430;BME280;32131;53.454;-6.180;2023-02-24T14:20:26;101562.22;;;12.12;67.35
46430;BME280;32131;53.454;-6.180;2023-02-24T14:22:57;101554.47;;;12.14;67.98
46430;BME280;32131;53.454;-6.180;2023-02-24T14:25:27;101556.97;;;12.10;68.70
46430;BME280;32131;53.454;-6.180;2023-02-24T14:27:58;101559.41;;;12.03;69.55
46430;BME280;32131;53.454;-6.180;2023-02-24T14:30:30;101565.41;;;12.00;70.21
46430;BME280;32131;53.454;-6.180;2023-02-24T14:33:00;101571.28;;;11.94;70.46
46430;BME280;32131;53.454;-6.180;2023-02-24T14:35:33;101586.59;;;11.85;71.08
46430;BME280;32131;53.454;-6.180;2023-02-24T14:38:03;101586.50;;;11.82;70.90
46430;BME280;32131;53.454;-6.180;2023-02-24T14:40:33;101570.84;;;11.76;70.21
46430;BME280;32131;53.454;-6.180;2023-02-24T14:43:11;101571.31;;;11.59;69.62
46430;BME280;32131;53.454;-6.180;2023-02-24T14:45:47;101550.34;;;11.48;70.21
46430;BME280;32131;53.454;-6.180;2023-02-24T14:48:21;101526.59;;;11.28;69.45
46430;BME280;32131;53.454;-6.180;2023-02-24T14:50:50;101533.47;;;11.29;69.19
46430;BME280;32131;53.454;-6.180;2023-02-24T14:53:21;101535.56;;;11.43;69.11
46430;BME280;32131;53.454;-6.180;2023-02-24T14:55:52;101539.13;;;11.48;69.51
46430;BME280;32131;53.454;-6.180;2023-02-24T14:58:26;101531.91;;;11.35;69.41
46430;BME280;32131;53.454;-6.180;2023-02-24T15:00:57;101528.09;;;11.20;68.88
46430;BME280;32131;53.454;-6.180;2023-02-24T15:03:31;101522.94;;;11.20;67.62
46430;BME280;32131;53.454;-6.180;2023-02-24T15:06:04;101527.56;;;11.33;67.71
46430;BME280;32131;53.454;-6.180;2023-02-24T15:08:39;101532.13;;;11.44;67.21
46430;BME280;32131;53.454;-6.180;2023-02-24T15:11:18;101534.75;;;11.45;67.16
46430;BME280;32131;53.454;-6.180;2023-02-24T15:13:50;101539.72;;;11.38;67.75
46430;BME280;32131;53.454;-6.180;2023-02-24T15:16:25;101542.31;;;11.38;67.83
46430;BME280;32131;53.454;-6.180;2023-02-24T15:18:57;101536.25;;;11.36;67.50
46430;BME280;32131;53.454;-6.180;2023-02-24T15:21:29;101532.47;;;11.23;67.05
46430;BME280;32131;53.454;-6.180;2023-02-24T15:23:59;101524.50;;;11.15;66.86
46430;BME280;32131;53.454;-6.180;2023-02-24T15:26:29;101500.84;;;10.98;66.87
46430;BME280;32131;53.454;-6.180;2023-02-24T15:29:02;101510.72;;;10.81;66.72
46430;BME280;32131;53.454;-6.180;2023-02-24T15:31:38;101504.75;;;10.83;67.35
46430;BME280;32131;53.454;-6.180;2023-02-24T15:34:15;101506.47;;;10.83;67.76
46430;BME280;32131;53.454;-6.180;2023-02-24T15:36:46;101502.91;;;10.78;68.08
46430;BME280;32131;53.454;-6.180;2023-02-24T15:39:18;101498.34;;;10.69;68.59
46430;BME280;32131;53.454;-6.180;2023-02-24T15:41:50;101506.84;;;10.65;68.59
46430;BME280;32131;53.454;-6.180;2023-02-24T15:44:24;101510.09;;;10.58;68.11
46430;BME280;32131;53.454;-6.180;2023-02-24T15:46:54;101506.53;;;10.54;68.58
46430;BME280;32131;53.454;-6.180;2023-02-24T15:49:22;101511.56;;;10.49;69.04
46430;BME280;32131;53.454;-6.180;2023-02-24T15:51:51;101506.31;;;10.45;69.19
46430;BME280;32131;53.454;-6.180;2023-02-24T15:54:27;101515.72;;;10.43;69.06
46430;BME280;32131;53.454;-6.180;2023-02-24T15:56:56;101526.84;;;10.42;69.00
46430;BME280;32131;53.454;-6.180;2023-02-24T16:03:14;101536.78;;;10.58;68.33
46430;BME280;32131;53.454;-6.180;2023-02-24T16:05:43;101544.38;;;10.84;67.50
46430;BME280;32131;53.454;-6.180;2023-02-24T16:08:17;101536.94;;;10.96;66.85
46430;BME280;32131;53.454;-6.180;2023-02-24T16:10:46;101551.56;;;10.94;66.65
46430;BME280;32131;53.454;-6.180;2023-02-24T16:13:18;101547.50;;;11.04;66.00
46430;BME280;32131;53.454;-6.180;2023-02-24T16:15:47;101543.53;;;11.17;65.81
46430;BME280;32131;53.454;-6.180;2023-02-24T16:18:19;101540.63;;;11.05;65.29
46430;BME280;32131;53.454;-6.180;2023-02-24T16:20:49;101539.47;;;10.93;65.41
46430;BME280;32131;53.454;-6.180;2023-02-24T16:23:22;101538.75;;;10.99;65.32